createdAt,value
2019-01-11T00:00:22.201Z,-0.30
2019-01-11T00:02:49.822Z,-0.29
2019-01-11T00:05:17.745Z,-0.40
2019-01-11T00:07:45.370Z,-0.39
2019-01-11T00:10:13.358Z,-0.36
2019-01-11T00:12:41.331Z,-0.38
2019-01-11T00:15:09.299Z,-0.39
2019-01-11T00:17:36.926Z,-0.44
2019-01-11T00:20:04.830Z,-0.34
2019-01-11T00:22:32.805Z,-0.39
2019-01-11T00:25:00.436Z,-0.33
2019-01-11T00:27:28.323Z,-0.37
2019-01-11T00:29:56.297Z,-0.33
2019-01-11T00:32:24.297Z,-0.34
2019-01-11T00:34:51.924Z,-0.32
2019-01-11T00:37:19.558Z,-0.33
2019-01-11T00:39:47.460Z,-0.34
2019-01-11T00:42:15.428Z,-0.38
2019-01-11T00:44:43.399Z,-0.36
2019-01-11T00:47:11.367Z,-0.36
2019-01-11T00:49:38.992Z,-0.51
2019-01-11T00:52:07.105Z,-0.46
2019-01-11T00:54:35.070Z,-0.49
2019-01-11T00:57:03.038Z,-0.43
2019-01-11T00:59:31.011Z,-0.45
2019-01-11T01:01:58.643Z,-0.55
2019-01-11T01:04:26.542Z,-0.61
2019-01-11T01:06:54.512Z,-0.58
2019-01-11T01:09:22.210Z,-0.59
2019-01-11T01:11:49.860Z,-0.57
2019-01-11T01:14:17.486Z,-0.62
2019-01-11T01:16:45.468Z,-0.64
2019-01-11T01:19:19.881Z,-0.54
2019-01-11T01:21:42.775Z,-0.66
2019-01-11T01:24:10.708Z,-0.67
2019-01-11T01:26:38.681Z,-0.72
2019-01-11T01:29:06.650Z,-0.76
2019-01-11T01:31:34.307Z,-0.73
2019-01-11T01:34:02.276Z,-0.69
2019-01-11T01:36:29.920Z,-0.76
2019-01-11T01:38:57.907Z,-0.78
2019-01-11T01:41:25.541Z,-0.82
2019-01-11T01:43:53.435Z,-0.79
2019-01-11T01:46:21.408Z,-0.87
2019-01-11T01:48:49.377Z,-0.83
2019-01-11T01:51:17.349Z,-0.72
2019-01-11T01:53:45.318Z,-0.74
2019-01-11T01:56:12.965Z,-0.75
2019-01-11T01:58:40.603Z,-0.74
2019-01-11T02:01:08.524Z,-0.74
2019-01-11T02:03:36.145Z,-0.75
2019-01-11T02:06:04.036Z,-0.73
2019-01-11T02:08:31.663Z,-0.78
2019-01-11T02:10:59.681Z,-0.76
2019-01-11T02:13:27.845Z,-0.73
2019-01-11T02:15:55.480Z,-0.71
2019-01-11T02:18:23.377Z,-0.78
2019-01-11T02:20:51.345Z,-0.76
2019-01-11T02:23:19.316Z,-0.71
2019-01-11T02:25:47.308Z,-0.80
2019-01-11T02:28:15.252Z,-0.81
2019-01-11T02:30:42.897Z,-0.86
2019-01-11T02:33:10.532Z,-0.76
2019-01-11T02:35:38.454Z,-0.82
2019-01-11T02:38:06.095Z,-0.71
2019-01-11T02:40:33.977Z,-0.82
2019-01-11T02:43:01.951Z,-0.88
2019-01-11T02:45:29.914Z,-0.78
2019-01-11T02:47:57.555Z,-0.87
2019-01-11T02:50:25.544Z,-0.92
2019-01-11T02:52:53.189Z,-0.92
2019-01-11T02:55:21.176Z,-0.91
2019-01-11T02:57:49.164Z,-0.88
2019-01-11T03:00:16.787Z,-0.91
2019-01-11T03:02:44.782Z,-0.90
2019-01-11T03:05:12.418Z,-0.98
2019-01-11T03:07:40.309Z,-0.97
2019-01-11T03:10:08.026Z,-0.82
2019-01-11T03:12:35.948Z,-0.94
2019-01-11T03:15:03.583Z,-0.88
2019-01-11T03:17:31.573Z,-0.92
2019-01-11T03:19:59.552Z,-1.01
2019-01-11T03:22:27.514Z,-1.03
2019-01-11T03:24:55.152Z,-1.01
2019-01-11T03:27:23.152Z,-0.96
2019-01-11T03:29:51.112Z,-1.00
2019-01-11T03:32:19.106Z,-0.98
2019-01-11T03:35:07.826Z,-0.95
2019-01-11T03:37:35.539Z,-0.95
2019-01-11T03:40:03.258Z,-0.93
2019-01-11T03:42:31.237Z,-0.94
2019-01-11T03:44:59.205Z,-0.95
2019-01-11T03:47:26.846Z,-0.93
2019-01-11T03:49:55.236Z,-0.84
2019-01-11T03:52:23.219Z,-0.88
2019-01-11T03:54:50.849Z,-0.84
2019-01-11T03:57:18.748Z,-0.90
2019-01-11T03:59:46.730Z,-0.86
2019-01-11T04:02:14.361Z,-0.83
2019-01-11T04:04:42.353Z,-0.88
2019-01-11T04:07:10.000Z,-0.88
2019-01-11T04:09:37.980Z,-0.84
2019-01-11T04:12:05.966Z,-0.82
2019-01-11T04:14:33.592Z,-0.84
2019-01-11T04:17:01.231Z,-0.72
2019-01-11T04:19:29.143Z,-0.84
2019-01-11T04:22:16.469Z,-0.84
2019-01-11T04:25:01.230Z,-0.87
2019-01-11T04:27:29.206Z,-0.83
2019-01-11T04:29:56.841Z,-0.78
2019-01-11T04:32:24.832Z,-0.82
2019-01-11T04:34:52.809Z,-0.78
2019-01-11T04:37:20.786Z,-0.85
2019-01-11T04:39:48.429Z,-0.82
2019-01-11T04:42:16.401Z,-0.87
2019-01-11T04:44:44.373Z,-0.87
2019-01-11T04:47:12.009Z,-0.86
2019-01-11T04:49:41.434Z,-0.85
2019-01-11T04:52:09.407Z,-0.81
2019-01-11T04:54:37.375Z,-0.82
2019-01-11T04:57:05.348Z,-0.78
2019-01-11T04:59:33.321Z,-0.90
2019-01-11T05:02:00.977Z,-0.82
2019-01-11T05:04:28.964Z,-0.90
2019-01-11T05:06:57.253Z,-0.67
2019-01-11T05:09:25.216Z,-0.73
2019-01-11T05:11:52.914Z,-0.78
2019-01-11T05:14:20.825Z,-0.85
2019-01-11T05:16:48.799Z,-0.79
2019-01-11T05:19:16.764Z,-0.77
2019-01-11T05:21:44.751Z,-0.89
2019-01-11T05:24:12.385Z,-0.89
2019-01-11T05:26:40.014Z,-0.87
2019-01-11T05:29:08.237Z,-0.79
2019-01-11T05:31:36.206Z,-0.82
2019-01-11T05:34:03.832Z,-0.85
2019-01-11T05:36:31.734Z,-0.86
2019-01-11T05:38:59.369Z,-0.86
2019-01-11T05:41:26.992Z,-0.88
2019-01-11T05:43:54.625Z,-0.84
2019-01-11T05:46:22.565Z,-0.84
2019-01-11T05:48:50.461Z,-0.89
2019-01-11T05:51:18.081Z,-0.87
2019-01-11T05:53:45.985Z,-0.83
2019-01-11T05:56:16.228Z,-0.85
2019-01-11T05:58:50.764Z,-0.89
2019-01-11T06:01:18.464Z,-0.77
2019-01-11T06:03:46.096Z,-0.81
2019-01-11T06:06:13.787Z,-0.85
2019-01-11T06:08:42.005Z,-0.85
2019-01-11T06:11:09.636Z,-0.73
2019-01-11T06:13:37.267Z,-0.78
2019-01-11T06:16:04.902Z,-0.74
2019-01-11T06:18:32.533Z,-0.68
2019-01-11T06:21:00.168Z,-0.56
2019-01-11T06:23:27.807Z,-0.67
2019-01-11T06:25:55.736Z,-0.69
2019-01-11T06:28:23.382Z,-0.70
2019-01-11T06:30:51.671Z,-0.58
2019-01-11T06:33:19.305Z,-0.62
2019-01-11T06:35:46.931Z,-0.58
2019-01-11T06:38:14.863Z,-0.61
2019-01-11T06:40:42.504Z,-0.62
2019-01-11T06:43:13.580Z,-0.60
2019-01-11T06:45:42.155Z,-0.58
2019-01-11T06:48:32.738Z,-0.57
2019-01-11T06:51:03.651Z,-0.65
2019-01-11T06:53:31.217Z,-0.67
2019-01-11T06:55:59.123Z,-0.64
2019-01-11T06:58:26.756Z,-0.57
2019-01-11T07:00:54.653Z,-0.53
2019-01-11T07:03:22.292Z,-0.48
2019-01-11T07:05:50.197Z,-0.36
2019-01-11T07:08:18.152Z,-0.35
2019-01-11T07:10:46.600Z,-0.43
2019-01-11T07:13:14.496Z,-0.38
2019-01-11T07:15:42.132Z,-0.43
2019-01-11T07:18:09.771Z,-0.51
2019-01-11T07:20:42.885Z,-0.45
2019-01-11T07:23:07.299Z,-0.52
2019-01-11T07:25:35.267Z,-0.49
2019-01-11T07:28:02.916Z,-0.49
2019-01-11T07:30:48.480Z,-0.57
2019-01-11T07:33:16.992Z,-0.41
2019-01-11T07:35:50.602Z,-0.33
2019-01-11T07:38:18.237Z,-0.39
2019-01-11T07:40:45.867Z,-0.48
2019-01-11T07:43:13.788Z,-0.39
2019-01-11T07:45:41.755Z,-0.34
2019-01-11T07:48:09.388Z,-0.51
2019-01-11T07:50:37.286Z,-0.49
2019-01-11T07:53:04.907Z,-0.48
2019-01-11T07:55:32.539Z,-0.46
2019-01-11T07:58:00.482Z,-0.36
2019-01-11T08:00:28.113Z,-0.39
2019-01-11T08:02:56.004Z,-0.45
2019-01-11T08:05:23.976Z,-0.37
2019-01-11T08:07:51.600Z,-0.29
2019-01-11T08:10:19.507Z,-0.45
2019-01-11T08:12:47.138Z,-0.47
2019-01-11T08:15:14.847Z,-0.37
2019-01-11T08:17:42.475Z,-0.22
2019-01-11T08:20:10.107Z,-0.24
2019-01-11T08:22:41.719Z,-0.17
2019-01-11T08:25:09.886Z,-0.29
2019-01-11T08:27:37.519Z,-0.46
2019-01-11T08:30:05.148Z,-0.41
2019-01-11T08:32:33.080Z,-0.25
2019-01-11T08:35:02.295Z,-0.34
2019-01-11T08:37:30.263Z,-0.30
2019-01-11T08:39:57.897Z,-0.16
2019-01-11T08:42:25.877Z,-0.24
2019-01-11T08:44:53.844Z,-0.18
2019-01-11T08:47:21.467Z,-0.27
2019-01-11T08:49:49.108Z,-0.15
2019-01-11T08:52:16.734Z,-0.16
2019-01-11T08:54:44.702Z,-0.17
2019-01-11T08:57:12.327Z,-0.10
2019-01-11T08:59:40.227Z,-0.14
2019-01-11T09:02:08.217Z,-0.10
2019-01-11T09:04:36.170Z,-0.05
2019-01-11T09:07:03.799Z,0.09
2019-01-11T09:09:31.700Z,0.12
2019-01-11T09:11:59.330Z,0.19
2019-01-11T09:14:47.099Z,0.13
2019-01-11T09:17:15.060Z,0.09
2019-01-11T09:19:42.696Z,0.14
2019-01-11T09:22:10.609Z,0.15
2019-01-11T09:24:38.559Z,0.14
2019-01-11T09:27:06.533Z,0.22
2019-01-11T09:29:34.515Z,0.19
2019-01-11T09:32:02.782Z,0.20
2019-01-11T09:34:30.423Z,0.32
2019-01-11T09:36:58.043Z,0.32
2019-01-11T09:39:25.679Z,0.36
2019-01-11T09:41:53.298Z,0.33
2019-01-11T09:44:21.190Z,0.38
2019-01-11T09:46:49.159Z,0.32
2019-01-11T09:49:17.146Z,0.39
2019-01-11T09:51:46.429Z,0.42
2019-01-11T09:54:14.409Z,0.48
2019-01-11T09:56:42.374Z,0.33
2019-01-11T09:59:10.006Z,0.37
2019-01-11T10:01:37.624Z,0.35
2019-01-11T10:04:05.238Z,0.47
2019-01-11T10:06:34.713Z,0.43
2019-01-11T10:09:02.688Z,0.22
2019-01-11T10:11:30.607Z,0.28
2019-01-11T10:13:58.570Z,0.27
2019-01-11T10:16:26.546Z,0.31
2019-01-11T10:18:54.508Z,0.37
2019-01-11T10:21:24.039Z,0.43
2019-01-11T10:23:51.696Z,0.58
2019-01-11T10:26:19.328Z,0.57
2019-01-11T10:28:47.822Z,0.42
2019-01-11T10:31:15.787Z,0.49
2019-01-11T10:33:43.724Z,0.40
2019-01-11T10:36:11.351Z,0.36
2019-01-11T10:38:39.290Z,0.35
2019-01-11T10:41:07.255Z,0.36
2019-01-11T10:43:34.871Z,0.33
2019-01-11T10:46:04.836Z,0.42
2019-01-11T10:48:32.802Z,0.59
2019-01-11T10:51:00.782Z,0.57
2019-01-11T10:53:28.745Z,0.62
2019-01-11T10:55:56.714Z,0.50
2019-01-11T10:58:24.682Z,0.67
2019-01-11T11:00:52.317Z,0.73
2019-01-11T11:03:20.217Z,0.63
2019-01-11T11:05:48.182Z,0.79
2019-01-11T11:08:16.159Z,0.64
2019-01-11T11:10:44.118Z,0.74
2019-01-11T11:13:11.985Z,0.56
2019-01-11T11:15:42.659Z,0.65
2019-01-11T11:18:10.279Z,0.64
2019-01-11T11:20:38.256Z,0.69
2019-01-11T11:23:06.223Z,0.63
2019-01-11T11:25:34.192Z,0.75
2019-01-11T11:28:02.157Z,0.82
2019-01-11T11:30:30.130Z,0.76
2019-01-11T11:32:59.329Z,0.73
2019-01-11T11:35:26.961Z,0.79
2019-01-11T11:37:54.865Z,0.80
2019-01-11T11:40:22.490Z,0.82
2019-01-11T11:42:50.180Z,0.86
2019-01-11T11:45:18.152Z,0.88
2019-01-11T11:47:46.126Z,0.87
2019-01-11T11:50:14.088Z,0.90
2019-01-11T11:52:41.964Z,0.92
2019-01-11T11:55:09.935Z,0.97
2019-01-11T11:57:37.541Z,1.08
2019-01-11T12:00:05.461Z,1.05
2019-01-11T12:02:33.424Z,1.00
2019-01-11T12:05:01.400Z,1.03
2019-01-11T12:07:29.040Z,0.93
2019-01-11T12:09:56.655Z,0.96
2019-01-11T12:12:24.286Z,1.02
2019-01-11T12:14:51.901Z,1.04
2019-01-11T12:17:19.811Z,1.05
2019-01-11T12:19:47.783Z,1.03
2019-01-11T12:22:15.771Z,1.06
2019-01-11T12:24:43.398Z,1.12
2019-01-11T12:27:11.386Z,1.04
2019-01-11T12:29:39.352Z,0.93
2019-01-11T12:32:06.978Z,0.91
2019-01-11T12:34:34.883Z,0.97
2019-01-11T12:37:02.851Z,0.92
2019-01-11T12:39:30.828Z,0.96
2019-01-11T12:41:58.789Z,0.92
2019-01-11T12:44:26.778Z,0.96
2019-01-11T12:46:54.408Z,0.85
2019-01-11T12:49:22.294Z,0.93
2019-01-11T12:51:53.947Z,0.92
2019-01-11T12:54:19.566Z,0.86
2019-01-11T12:56:47.185Z,0.88
2019-01-11T12:59:17.856Z,0.94
2019-01-11T13:01:45.826Z,1.03
2019-01-11T13:04:13.451Z,0.96
2019-01-11T13:06:41.364Z,0.96
2019-01-11T13:09:08.980Z,1.04
2019-01-11T13:11:36.608Z,1.03
2019-01-11T13:14:04.238Z,1.00
2019-01-11T13:16:32.211Z,0.91
2019-01-11T13:18:59.832Z,1.06
2019-01-11T13:21:27.739Z,1.06
2019-01-11T13:23:55.709Z,1.01
2019-01-11T13:26:23.697Z,1.09
2019-01-11T13:28:51.332Z,1.01
2019-01-11T13:31:19.311Z,1.05
2019-01-11T13:33:47.278Z,0.99
2019-01-11T13:36:19.586Z,0.99
2019-01-11T13:38:47.523Z,1.01
2019-01-11T13:41:15.494Z,1.08
2019-01-11T13:43:43.131Z,1.10
2019-01-11T13:46:11.018Z,1.04
2019-01-11T13:48:39.173Z,1.05
2019-01-11T13:51:06.810Z,1.02
2019-01-11T13:53:34.724Z,1.00
2019-01-11T13:56:02.373Z,1.05
2019-01-11T13:58:30.065Z,0.96
2019-01-11T14:00:58.018Z,1.01
2019-01-11T14:03:25.992Z,1.03
2019-01-11T14:05:53.966Z,1.08
2019-01-11T14:08:21.925Z,1.06
2019-01-11T14:10:49.898Z,1.05
2019-01-11T14:13:17.533Z,1.15
2019-01-11T14:15:45.429Z,1.15
2019-01-11T14:18:13.394Z,1.07
2019-01-11T14:20:41.269Z,1.09
2019-01-11T14:23:08.900Z,1.12
2019-01-11T14:25:36.824Z,1.09
2019-01-11T14:28:04.465Z,1.08
2019-01-11T14:30:32.423Z,1.14
2019-01-11T14:33:00.399Z,1.13
2019-01-11T14:35:28.367Z,1.16
2019-01-11T14:37:55.996Z,1.10
2019-01-11T14:40:23.895Z,1.11
2019-01-11T14:42:51.533Z,1.15
2019-01-11T14:45:19.428Z,1.13
2019-01-11T14:47:47.406Z,1.07
2019-01-11T14:50:15.027Z,1.18
2019-01-11T14:52:43.048Z,1.18
2019-01-11T14:55:10.677Z,1.15
2019-01-11T14:57:38.740Z,1.13
2019-01-11T15:00:07.049Z,1.15
2019-01-11T15:02:34.689Z,1.15
2019-01-11T15:05:02.584Z,1.20
2019-01-11T15:07:30.539Z,1.21
2019-01-11T15:09:58.183Z,1.22
2019-01-11T15:12:26.067Z,1.28
2019-01-11T15:14:54.055Z,1.27
2019-01-11T15:17:21.694Z,1.33
2019-01-11T15:19:49.589Z,1.29
2019-01-11T15:22:17.535Z,1.29
2019-01-11T15:24:45.526Z,1.38
2019-01-11T15:27:13.473Z,1.42
2019-01-11T15:29:41.100Z,1.54
2019-01-11T15:32:09.008Z,1.55
2019-01-11T15:34:36.975Z,1.58
2019-01-11T15:37:04.952Z,1.56
2019-01-11T15:39:32.919Z,1.61
2019-01-11T15:42:00.546Z,1.68
2019-01-11T15:44:28.443Z,1.64
2019-01-11T15:46:56.414Z,1.61
2019-01-11T15:49:24.407Z,1.61
2019-01-11T15:51:52.025Z,1.60
2019-01-11T15:54:19.649Z,1.65
2019-01-11T15:56:47.274Z,1.54
2019-01-11T15:59:15.242Z,1.58
2019-01-11T16:01:42.944Z,1.59
2019-01-11T16:04:10.873Z,1.65
2019-01-11T16:06:38.901Z,1.71
2019-01-11T16:09:06.543Z,1.87
2019-01-11T16:11:34.475Z,1.80
2019-01-11T16:14:02.114Z,1.76
2019-01-11T16:16:30.002Z,1.77
2019-01-11T16:18:57.991Z,1.86
2019-01-11T16:21:25.943Z,2.07
2019-01-11T16:23:54.218Z,1.84
2019-01-11T16:26:21.839Z,1.91
2019-01-11T16:28:49.473Z,2.05
2019-01-11T16:31:17.101Z,1.90
2019-01-11T16:33:45.070Z,1.91
2019-01-11T16:36:13.059Z,1.82
2019-01-11T16:38:41.010Z,1.85
2019-01-11T16:41:08.630Z,1.73
2019-01-11T16:43:36.260Z,1.81
2019-01-11T16:46:04.206Z,1.79
2019-01-11T16:48:32.173Z,1.88
2019-01-11T16:50:59.794Z,1.92
2019-01-11T16:53:27.707Z,1.89
2019-01-11T16:55:55.676Z,1.98
2019-01-11T16:58:23.305Z,1.97
2019-01-11T17:00:51.217Z,1.99
2019-01-11T17:03:18.853Z,1.94
2019-01-11T17:05:46.736Z,2.04
2019-01-11T17:08:14.713Z,1.95
2019-01-11T17:10:42.678Z,2.07
2019-01-11T17:13:10.311Z,2.08
2019-01-11T17:15:38.203Z,2.12
2019-01-11T17:18:05.833Z,2.10
2019-01-11T17:20:33.454Z,2.29
2019-01-11T17:23:01.395Z,2.36
2019-01-11T17:25:29.020Z,2.35
2019-01-11T17:27:56.922Z,2.41
2019-01-11T17:30:24.921Z,2.53
2019-01-11T17:32:52.550Z,2.43
2019-01-11T17:35:20.529Z,2.47
2019-01-11T17:37:48.495Z,2.44
2019-01-11T17:40:16.131Z,2.45
2019-01-11T17:42:44.027Z,2.44
2019-01-11T17:45:11.658Z,2.45
2019-01-11T17:47:39.287Z,2.48
2019-01-11T17:50:07.235Z,2.43
2019-01-11T17:52:35.185Z,2.50
2019-01-11T17:55:03.171Z,2.50
2019-01-11T17:57:30.792Z,2.51
2019-01-11T17:59:58.427Z,2.51
2019-01-11T18:02:26.047Z,2.45
2019-01-11T18:04:54.009Z,2.51
2019-01-11T18:07:21.982Z,2.52
2019-01-11T18:09:49.607Z,2.56
2019-01-11T18:12:20.154Z,2.58
2019-01-11T18:14:46.568Z,2.64
2019-01-11T18:17:14.577Z,2.65
2019-01-11T18:19:42.207Z,2.60
2019-01-11T18:22:10.107Z,2.70
2019-01-11T18:24:37.743Z,2.69
2019-01-11T18:27:05.366Z,2.76
2019-01-11T18:29:33.067Z,2.79
2019-01-11T18:32:00.975Z,2.76
2019-01-11T18:34:28.613Z,2.85
2019-01-11T18:36:56.231Z,2.84
2019-01-11T18:39:24.576Z,2.81
2019-01-11T18:41:52.531Z,2.73
2019-01-11T18:44:20.172Z,2.70
2019-01-11T18:46:48.058Z,2.67
2019-01-11T18:49:15.693Z,2.61
2019-01-11T18:51:43.588Z,2.62
2019-01-11T18:54:11.219Z,2.63
2019-01-11T18:56:39.121Z,2.70
2019-01-11T18:59:07.098Z,2.73
2019-01-11T19:01:34.718Z,2.67
2019-01-11T19:04:02.341Z,2.75
2019-01-11T19:06:30.283Z,2.75
2019-01-11T19:08:58.245Z,2.80
2019-01-11T19:11:26.221Z,2.81
2019-01-11T19:13:53.846Z,2.89
2019-01-11T19:16:21.745Z,2.86
2019-01-11T19:18:49.720Z,2.84
2019-01-11T19:21:17.688Z,2.84
2019-01-11T19:23:45.307Z,2.88
2019-01-11T19:26:13.219Z,2.88
2019-01-11T19:28:41.188Z,2.91
2019-01-11T19:31:09.158Z,2.98
2019-01-11T19:33:37.126Z,3.00
2019-01-11T19:36:05.117Z,2.98
2019-01-11T19:38:33.066Z,3.10
2019-01-11T19:41:01.052Z,3.08
2019-01-11T19:43:28.663Z,3.03
2019-01-11T19:45:56.296Z,3.08
2019-01-11T19:48:23.919Z,3.08
2019-01-11T19:50:51.551Z,3.21
2019-01-11T19:53:19.176Z,3.12
2019-01-11T19:55:47.116Z,3.10
2019-01-11T19:58:15.094Z,3.06
2019-01-11T20:00:42.743Z,3.07
2019-01-11T20:03:10.351Z,3.10
2019-01-11T20:05:38.073Z,3.04
2019-01-11T20:08:06.066Z,3.08
2019-01-11T20:10:34.011Z,3.08
2019-01-11T20:13:01.993Z,3.02
2019-01-11T20:15:29.982Z,3.00
2019-01-11T20:17:57.597Z,3.01
2019-01-11T20:20:25.235Z,3.07
2019-01-11T20:22:53.144Z,3.13
2019-01-11T20:25:21.112Z,3.17
2019-01-11T20:27:48.732Z,3.21
2019-01-11T20:30:16.663Z,3.18
2019-01-11T20:32:44.296Z,3.27
2019-01-11T20:35:12.292Z,3.30
2019-01-11T20:37:39.918Z,3.28
2019-01-11T20:40:07.905Z,3.25
2019-01-11T20:42:35.871Z,3.24
2019-01-11T20:45:03.843Z,3.25
2019-01-11T20:47:31.487Z,3.29
2019-01-11T20:49:59.371Z,3.24
2019-01-11T20:52:27.343Z,3.24
2019-01-11T20:54:55.311Z,3.25
2019-01-11T20:57:23.278Z,3.34
2019-01-11T20:59:50.911Z,3.33
2019-01-11T21:02:18.826Z,3.44
2019-01-11T21:04:46.779Z,3.43
2019-01-11T21:07:14.749Z,3.43
2019-01-11T21:09:42.725Z,3.43
2019-01-11T21:12:10.366Z,3.53
2019-01-11T21:14:38.353Z,3.51
2019-01-11T21:17:06.352Z,3.47
2019-01-11T21:19:34.287Z,3.45
2019-01-11T21:22:01.932Z,3.45
2019-01-11T21:24:29.569Z,3.45
2019-01-11T21:26:57.212Z,3.49
2019-01-11T21:29:25.450Z,3.46
2019-01-11T21:31:53.439Z,3.46
2019-01-11T21:34:21.399Z,3.46
2019-01-11T21:36:49.028Z,3.45
2019-01-11T21:39:16.661Z,3.42
2019-01-11T21:41:44.584Z,3.42
2019-01-11T21:44:12.218Z,3.42
2019-01-11T21:46:39.855Z,3.40
2019-01-11T21:49:07.779Z,3.35
2019-01-11T21:51:35.762Z,3.51
2019-01-11T21:54:03.463Z,3.47
2019-01-11T21:56:31.375Z,3.49
2019-01-11T21:58:59.008Z,3.52
2019-01-11T22:01:26.911Z,3.57
2019-01-11T22:03:55.190Z,3.51
2019-01-11T22:06:23.159Z,3.54
2019-01-11T22:08:50.871Z,3.44
2019-01-11T22:11:18.788Z,3.49
2019-01-11T22:13:46.755Z,3.50
2019-01-11T22:16:14.386Z,3.56
2019-01-11T22:18:42.298Z,3.59
2019-01-11T22:21:10.251Z,3.57
2019-01-11T22:23:39.857Z,3.61
2019-01-11T22:26:07.631Z,3.74
2019-01-11T22:28:35.595Z,3.76
2019-01-11T22:31:03.568Z,3.80
2019-01-11T22:33:31.536Z,3.77
2019-01-11T22:35:59.502Z,3.85
2019-01-11T22:38:27.142Z,3.80
2019-01-11T22:40:55.036Z,3.80
2019-01-11T22:43:23.002Z,3.83
2019-01-11T22:45:50.972Z,3.78
2019-01-11T22:48:18.943Z,3.80
2019-01-11T22:50:46.570Z,3.79
2019-01-11T22:53:14.218Z,3.80
2019-01-11T22:55:42.134Z,3.80
2019-01-11T22:58:10.108Z,3.75
2019-01-11T23:00:38.613Z,3.77
2019-01-11T23:03:06.258Z,3.78
2019-01-11T23:05:33.882Z,3.73
2019-01-11T23:08:01.784Z,3.79
2019-01-11T23:10:29.750Z,3.81
2019-01-11T23:12:57.721Z,3.80
2019-01-11T23:15:25.687Z,3.78
2019-01-11T23:17:53.656Z,3.72
2019-01-11T23:20:21.629Z,3.75
2019-01-11T23:22:49.603Z,3.72
2019-01-11T23:25:17.238Z,3.87
2019-01-11T23:27:45.538Z,3.85
2019-01-11T23:30:13.181Z,3.80
2019-01-11T23:32:41.065Z,3.86
2019-01-11T23:35:09.054Z,3.93
2019-01-11T23:37:36.684Z,3.99
2019-01-11T23:40:04.321Z,3.91
2019-01-11T23:42:32.228Z,3.92
2019-01-11T23:45:00.208Z,3.97
2019-01-11T23:47:28.163Z,3.92
2019-01-11T23:49:56.154Z,3.92
2019-01-11T23:52:23.767Z,3.91
2019-01-11T23:54:51.409Z,3.89
2019-01-11T23:57:19.038Z,3.86
2019-01-11T23:59:46.667Z,3.85
